sensor_id;sensor_type;location;lat;lon;timestamp;P1;durP1;ratioP1;P2;durP2;ratioP2
59062;SDS011;44851;45.648;9.004;2023-08-30T00:02:03;2.57;;;1.47;;
59062;SDS011;44851;45.648;9.004;2023-08-30T00:04:28;1.60;;;1.30;;
59062;SDS011;44851;45.648;9.004;2023-08-30T00:06:54;3.07;;;1.50;;
59062;SDS011;44851;45.648;9.004;2023-08-30T00:09:19;1.93;;;1.10;;
59062;SDS011;44851;45.648;9.004;2023-08-30T00:11:44;1.23;;;1.00;;
59062;SDS011;44851;45.648;9.004;2023-08-30T00:14:10;2.50;;;1.10;;
59062;SDS011;44851;45.648;9.004;2023-08-30T00:16:35;1.37;;;1.10;;
59062;SDS011;44851;45.648;9.004;2023-08-30T00:19:01;0.90;;;0.90;;
59062;SDS011;44851;45.648;9.004;2023-08-30T00:21:26;1.13;;;1.03;;
59062;SDS011;44851;45.648;9.004;2023-08-30T00:23:52;1.67;;;0.63;;
59062;SDS011;44851;45.648;9.004;2023-08-30T00:26:18;3.13;;;1.20;;
59062;SDS011;44851;45.648;9.004;2023-08-30T00:28:43;1.07;;;0.87;;
59062;SDS011;44851;45.648;9.004;2023-08-30T00:31:08;1.27;;;1.00;;
59062;SDS011;44851;45.648;9.004;2023-08-30T00:33:34;2.23;;;1.00;;
59062;SDS011;44851;45.648;9.004;2023-08-30T00:35:59;1.13;;;1.00;;
59062;SDS011;44851;45.648;9.004;2023-08-30T00:38:28;0.93;;;0.93;;
59062;SDS011;44851;45.648;9.004;2023-08-30T00:40:53;0.90;;;0.90;;
59062;SDS011;44851;45.648;9.004;2023-08-30T00:43:19;0.87;;;0.60;;
59062;SDS011;44851;45.648;9.004;2023-08-30T00:45:45;0.60;;;0.50;;
59062;SDS011;44851;45.648;9.004;2023-08-30T00:48:12;0.80;;;0.80;;
59062;SDS011;44851;45.648;9.004;2023-08-30T00:50:40;0.90;;;0.70;;
59062;SDS011;44851;45.648;9.004;2023-08-30T00:53:05;1.50;;;0.60;;
59062;SDS011;44851;45.648;9.004;2023-08-30T00:55:32;0.80;;;0.60;;
59062;SDS011;44851;45.648;9.004;2023-08-30T00:58:02;0.83;;;0.60;;
59062;SDS011;44851;45.648;9.004;2023-08-30T01:00:29;0.73;;;0.50;;
59062;SDS011;44851;45.648;9.004;2023-08-30T01:02:55;0.67;;;0.67;;
59062;SDS011;44851;45.648;9.004;2023-08-30T01:05:21;0.60;;;0.60;;
59062;SDS011;44851;45.648;9.004;2023-08-30T01:07:51;0.70;;;0.70;;
59062;SDS011;44851;45.648;9.004;2023-08-30T01:10:18;0.70;;;0.60;;
59062;SDS011;44851;45.648;9.004;2023-08-30T01:13:04;0.60;;;0.60;;
59062;SDS011;44851;45.648;9.004;2023-08-30T01:15:33;1.63;;;0.83;;
59062;SDS011;44851;45.648;9.004;2023-08-30T01:18:00;0.60;;;0.60;;
59062;SDS011;44851;45.648;9.004;2023-08-30T01:20:29;1.13;;;0.57;;
59062;SDS011;44851;45.648;9.004;2023-08-30T01:28:07;0.70;;;0.70;;
59062;SDS011;44851;45.648;9.004;2023-08-30T01:30:35;0.57;;;0.57;;
59062;SDS011;44851;45.648;9.004;2023-08-30T01:33:04;1.07;;;0.80;;
59062;SDS011;44851;45.648;9.004;2023-08-30T01:35:31;0.90;;;0.67;;
59062;SDS011;44851;45.648;9.004;2023-08-30T01:37:58;1.00;;;0.60;;
59062;SDS011;44851;45.648;9.004;2023-08-30T01:40:27;0.50;;;0.50;;
59062;SDS011;44851;45.648;9.004;2023-08-30T01:42:55;0.97;;;0.60;;
59062;SDS011;44851;45.648;9.004;2023-08-30T01:45:23;0.53;;;0.53;;
59062;SDS011;44851;45.648;9.004;2023-08-30T01:47:49;0.90;;;0.63;;
59062;SDS011;44851;45.648;9.004;2023-08-30T01:50:17;0.77;;;0.70;;
59062;SDS011;44851;45.648;9.004;2023-08-30T01:52:44;0.90;;;0.60;;
59062;SDS011;44851;45.648;9.004;2023-08-30T01:55:10;0.60;;;0.60;;
59062;SDS011;44851;45.648;9.004;2023-08-30T01:57:38;0.60;;;0.60;;
59062;SDS011;44851;45.648;9.004;2023-08-30T02:00:04;0.80;;;0.70;;
59062;SDS011;44851;45.648;9.004;2023-08-30T02:02:30;1.17;;;0.80;;
59062;SDS011;44851;45.648;9.004;2023-08-30T02:04:56;0.60;;;0.60;;
59062;SDS011;44851;45.648;9.004;2023-08-30T02:07:40;1.53;;;0.70;;
59062;SDS011;44851;45.648;9.004;2023-08-30T02:10:21;0.70;;;0.70;;
59062;SDS011;44851;45.648;9.004;2023-08-30T02:12:50;0.70;;;0.70;;
59062;SDS011;44851;45.648;9.004;2023-08-30T02:15:19;0.60;;;0.60;;
59062;SDS011;44851;45.648;9.004;2023-08-30T02:17:45;1.67;;;0.97;;
59062;SDS011;44851;45.648;9.004;2023-08-30T02:20:13;2.43;;;1.07;;
59062;SDS011;44851;45.648;9.004;2023-08-30T02:22:38;1.73;;;0.80;;
59062;SDS011;44851;45.648;9.004;2023-08-30T02:25:04;0.80;;;0.80;;
59062;SDS011;44851;45.648;9.004;2023-08-30T02:27:32;0.70;;;0.70;;
59062;SDS011;44851;45.648;9.004;2023-08-30T02:29:58;0.80;;;0.80;;
59062;SDS011;44851;45.648;9.004;2023-08-30T02:32:24;2.23;;;0.90;;
59062;SDS011;44851;45.648;9.004;2023-08-30T02:34:50;0.70;;;0.70;;
59062;SDS011;44851;45.648;9.004;2023-08-30T02:37:17;1.10;;;1.00;;
59062;SDS011;44851;45.648;9.004;2023-08-30T02:39:43;1.20;;;0.80;;
59062;SDS011;44851;45.648;9.004;2023-08-30T02:42:08;1.13;;;0.87;;
59062;SDS011;44851;45.648;9.004;2023-08-30T02:44:33;0.80;;;0.80;;
59062;SDS011;44851;45.648;9.004;2023-08-30T02:46:59;1.17;;;0.63;;
59062;SDS011;44851;45.648;9.004;2023-08-30T02:49:24;0.87;;;0.80;;
59062;SDS011;44851;45.648;9.004;2023-08-30T02:51:50;1.70;;;0.77;;
59062;SDS011;44851;45.648;9.004;2023-08-30T02:54:15;0.90;;;0.70;;
59062;SDS011;44851;45.648;9.004;2023-08-30T02:56:41;0.93;;;0.53;;
59062;SDS011;44851;45.648;9.004;2023-08-30T02:59:08;3.23;;;0.70;;
59062;SDS011;44851;45.648;9.004;2023-08-30T03:01:33;1.13;;;0.50;;
59062;SDS011;44851;45.648;9.004;2023-08-30T03:03:59;0.63;;;0.50;;
59062;SDS011;44851;45.648;9.004;2023-08-30T03:06:24;0.70;;;0.70;;
59062;SDS011;44851;45.648;9.004;2023-08-30T03:08:49;0.50;;;0.50;;
59062;SDS011;44851;45.648;9.004;2023-08-30T03:11:15;1.77;;;0.80;;
59062;SDS011;44851;45.648;9.004;2023-08-30T03:13:40;1.50;;;0.77;;
59062;SDS011;44851;45.648;9.004;2023-08-30T03:16:12;0.60;;;0.60;;
59062;SDS011;44851;45.648;9.004;2023-08-30T03:18:38;1.63;;;0.80;;
59062;SDS011;44851;45.648;9.004;2023-08-30T03:21:04;1.43;;;0.80;;
59062;SDS011;44851;45.648;9.004;2023-08-30T03:23:30;0.93;;;0.60;;
59062;SDS011;44851;45.648;9.004;2023-08-30T03:25:57;1.43;;;0.90;;
59062;SDS011;44851;45.648;9.004;2023-08-30T03:28:23;1.07;;;0.60;;
59062;SDS011;44851;45.648;9.004;2023-08-30T03:30:48;1.57;;;0.73;;
59062;SDS011;44851;45.648;9.004;2023-08-30T03:33:13;1.43;;;0.50;;
59062;SDS011;44851;45.648;9.004;2023-08-30T03:35:39;0.67;;;0.60;;
59062;SDS011;44851;45.648;9.004;2023-08-30T03:38:04;0.90;;;0.60;;
59062;SDS011;44851;45.648;9.004;2023-08-30T03:40:30;0.70;;;0.60;;
59062;SDS011;44851;45.648;9.004;2023-08-30T03:42:55;2.03;;;0.60;;
59062;SDS011;44851;45.648;9.004;2023-08-30T03:45:21;0.70;;;0.50;;
59062;SDS011;44851;45.648;9.004;2023-08-30T03:47:47;0.80;;;0.50;;
59062;SDS011;44851;45.648;9.004;2023-08-30T03:50:13;1.80;;;0.60;;
59062;SDS011;44851;45.648;9.004;2023-08-30T03:52:38;0.77;;;0.60;;
59062;SDS011;44851;45.648;9.004;2023-08-30T03:55:04;0.53;;;0.43;;
59062;SDS011;44851;45.648;9.004;2023-08-30T03:57:29;0.97;;;0.60;;
59062;SDS011;44851;45.648;9.004;2023-08-30T03:59:54;1.20;;;0.73;;
59062;SDS011;44851;45.648;9.004;2023-08-30T04:02:20;0.70;;;0.70;;
59062;SDS011;44851;45.648;9.004;2023-08-30T04:04:48;2.47;;;0.97;;
59062;SDS011;44851;45.648;9.004;2023-08-30T04:07:14;1.80;;;0.80;;
59062;SDS011;44851;45.648;9.004;2023-08-30T04:09:39;0.83;;;0.60;;
59062;SDS011;44851;45.648;9.004;2023-08-30T04:12:05;1.17;;;0.80;;
59062;SDS011;44851;45.648;9.004;2023-08-30T04:14:30;3.23;;;0.70;;
59062;SDS011;44851;45.648;9.004;2023-08-30T04:16:56;1.47;;;0.70;;
59062;SDS011;44851;45.648;9.004;2023-08-30T04:19:21;0.83;;;0.60;;
59062;SDS011;44851;45.648;9.004;2023-08-30T04:21:46;0.90;;;0.80;;
59062;SDS011;44851;45.648;9.004;2023-08-30T04:24:12;1.00;;;0.90;;
59062;SDS011;44851;45.648;9.004;2023-08-30T04:26:39;0.60;;;0.60;;
59062;SDS011;44851;45.648;9.004;2023-08-30T04:29:04;1.57;;;0.80;;
59062;SDS011;44851;45.648;9.004;2023-08-30T04:31:30;1.07;;;0.50;;
59062;SDS011;44851;45.648;9.004;2023-08-30T04:33:55;0.83;;;0.67;;
59062;SDS011;44851;45.648;9.004;2023-08-30T04:36:21;1.50;;;0.80;;
59062;SDS011;44851;45.648;9.004;2023-08-30T04:38:47;4.23;;;0.70;;
59062;SDS011;44851;45.648;9.004;2023-08-30T04:41:12;0.60;;;0.60;;
59062;SDS011;44851;45.648;9.004;2023-08-30T04:43:38;1.67;;;0.80;;
59062;SDS011;44851;45.648;9.004;2023-08-30T04:46:03;1.27;;;0.80;;
59062;SDS011;44851;45.648;9.004;2023-08-30T04:48:28;2.20;;;0.80;;
59062;SDS011;44851;45.648;9.004;2023-08-30T04:51:04;0.80;;;0.80;;
59062;SDS011;44851;45.648;9.004;2023-08-30T04:53:29;0.80;;;0.80;;
59062;SDS011;44851;45.648;9.004;2023-08-30T04:55:55;1.73;;;0.80;;
59062;SDS011;44851;45.648;9.004;2023-08-30T04:58:21;0.73;;;0.73;;
59062;SDS011;44851;45.648;9.004;2023-08-30T05:00:46;0.50;;;0.50;;
59062;SDS011;44851;45.648;9.004;2023-08-30T05:03:12;1.33;;;1.00;;
59062;SDS011;44851;45.648;9.004;2023-08-30T05:05:37;1.20;;;0.90;;
59062;SDS011;44851;45.648;9.004;2023-08-30T05:08:02;0.90;;;0.70;;
59062;SDS011;44851;45.648;9.004;2023-08-30T05:10:28;3.10;;;1.00;;
59062;SDS011;44851;45.648;9.004;2023-08-30T05:12:54;2.33;;;1.10;;
59062;SDS011;44851;45.648;9.004;2023-08-30T05:15:19;2.67;;;0.97;;
59062;SDS011;44851;45.648;9.004;2023-08-30T05:17:45;1.20;;;0.80;;
59062;SDS011;44851;45.648;9.004;2023-08-30T05:20:11;1.47;;;1.00;;
59062;SDS011;44851;45.648;9.004;2023-08-30T05:22:36;1.07;;;0.90;;
59062;SDS011;44851;45.648;9.004;2023-08-30T05:25:01;3.03;;;0.90;;
59062;SDS011;44851;45.648;9.004;2023-08-30T05:27:27;1.70;;;1.20;;
59062;SDS011;44851;45.648;9.004;2023-08-30T05:29:52;1.53;;;0.87;;
59062;SDS011;44851;45.648;9.004;2023-08-30T05:32:18;3.20;;;0.77;;
59062;SDS011;44851;45.648;9.004;2023-08-30T05:34:43;1.53;;;0.93;;
59062;SDS011;44851;45.648;9.004;2023-08-30T05:37:09;1.33;;;1.00;;
59062;SDS011;44851;45.648;9.004;2023-08-30T05:39:34;2.80;;;1.50;;
59062;SDS011;44851;45.648;9.004;2023-08-30T05:42:00;3.10;;;2.20;;
59062;SDS011;44851;45.648;9.004;2023-08-30T05:44:25;3.90;;;2.87;;
59062;SDS011;44851;45.648;9.004;2023-08-30T05:46:51;5.37;;;2.63;;
59062;SDS011;44851;45.648;9.004;2023-08-30T05:49:16;3.47;;;1.53;;
59062;SDS011;44851;45.648;9.004;2023-08-30T05:51:42;2.83;;;1.67;;
59062;SDS011;44851;45.648;9.004;2023-08-30T05:54:07;1.83;;;1.70;;
59062;SDS011;44851;45.648;9.004;2023-08-30T05:56:32;2.93;;;1.67;;
59062;SDS011;44851;45.648;9.004;2023-08-30T05:58:58;2.93;;;2.00;;
59062;SDS011;44851;45.648;9.004;2023-08-30T06:01:23;5.90;;;5.13;;
59062;SDS011;44851;45.648;9.004;2023-08-30T06:03:49;2.43;;;1.60;;
59062;SDS011;44851;45.648;9.004;2023-08-30T06:06:15;2.80;;;1.60;;
59062;SDS011;44851;45.648;9.004;2023-08-30T06:08:41;1.93;;;1.40;;
59062;SDS011;44851;45.648;9.004;2023-08-30T06:11:06;3.37;;;1.47;;
59062;SDS011;44851;45.648;9.004;2023-08-30T06:13:32;3.73;;;1.80;;
59062;SDS011;44851;45.648;9.004;2023-08-30T06:15:57;4.20;;;2.00;;
59062;SDS011;44851;45.648;9.004;2023-08-30T06:18:22;3.47;;;1.80;;
59062;SDS011;44851;45.648;9.004;2023-08-30T06:20:48;4.77;;;1.83;;
59062;SDS011;44851;45.648;9.004;2023-08-30T06:23:14;2.97;;;2.13;;
59062;SDS011;44851;45.648;9.004;2023-08-30T06:25:43;3.77;;;2.27;;
59062;SDS011;44851;45.648;9.004;2023-08-30T06:28:08;6.03;;;2.53;;
59062;SDS011;44851;45.648;9.004;2023-08-30T06:30:34;4.77;;;2.30;;
59062;SDS011;44851;45.648;9.004;2023-08-30T06:32:59;5.10;;;2.53;;
59062;SDS011;44851;45.648;9.004;2023-08-30T06:35:25;4.60;;;3.00;;
59062;SDS011;44851;45.648;9.004;2023-08-30T06:37:50;5.03;;;3.50;;
59062;SDS011;44851;45.648;9.004;2023-08-30T06:40:16;11.73;;;10.70;;
59062;SDS011;44851;45.648;9.004;2023-08-30T06:42:41;9.50;;;5.33;;
59062;SDS011;44851;45.648;9.004;2023-08-30T06:45:07;6.97;;;4.80;;
59062;SDS011;44851;45.648;9.004;2023-08-30T06:47:32;8.57;;;5.57;;
59062;SDS011;44851;45.648;9.004;2023-08-30T06:49:58;6.30;;;4.30;;
59062;SDS011;44851;45.648;9.004;2023-08-30T06:52:25;7.40;;;4.97;;
59062;SDS011;44851;45.648;9.004;2023-08-30T06:54:51;8.40;;;5.77;;
59062;SDS011;44851;45.648;9.004;2023-08-30T06:57:16;6.80;;;4.93;;
59062;SDS011;44851;45.648;9.004;2023-08-30T06:59:41;8.87;;;5.00;;
59062;SDS011;44851;45.648;9.004;2023-08-30T07:02:07;6.40;;;4.83;;
59062;SDS011;44851;45.648;9.004;2023-08-30T07:04:33;6.70;;;4.93;;
59062;SDS011;44851;45.648;9.004;2023-08-30T07:06:58;6.37;;;4.43;;
59062;SDS011;44851;45.648;9.004;2023-08-30T07:09:23;6.60;;;5.00;;
59062;SDS011;44851;45.648;9.004;2023-08-30T07:11:53;7.10;;;5.40;;
59062;SDS011;44851;45.648;9.004;2023-08-30T07:14:19;7.73;;;5.57;;
59062;SDS011;44851;45.648;9.004;2023-08-30T07:16:45;7.47;;;4.97;;
59062;SDS011;44851;45.648;9.004;2023-08-30T07:19:11;8.83;;;5.90;;
59062;SDS011;44851;45.648;9.004;2023-08-30T07:21:36;9.53;;;6.17;;
59062;SDS011;44851;45.648;9.004;2023-08-30T07:24:03;6.83;;;5.47;;
59062;SDS011;44851;45.648;9.004;2023-08-30T07:26:30;7.33;;;5.40;;
59062;SDS011;44851;45.648;9.004;2023-08-30T07:28:55;7.27;;;5.17;;
59062;SDS011;44851;45.648;9.004;2023-08-30T07:31:20;6.43;;;5.57;;
59062;SDS011;44851;45.648;9.004;2023-08-30T07:33:46;7.40;;;5.00;;
59062;SDS011;44851;45.648;9.004;2023-08-30T07:36:12;7.10;;;4.93;;
59062;SDS011;44851;45.648;9.004;2023-08-30T07:38:37;5.80;;;5.20;;
59062;SDS011;44851;45.648;9.004;2023-08-30T07:41:03;5.63;;;4.67;;
59062;SDS011;44851;45.648;9.004;2023-08-30T07:43:28;6.43;;;5.03;;
59062;SDS011;44851;45.648;9.004;2023-08-30T07:45:54;6.70;;;4.83;;
59062;SDS011;44851;45.648;9.004;2023-08-30T07:48:19;5.63;;;4.10;;
59062;SDS011;44851;45.648;9.004;2023-08-30T07:50:45;5.00;;;4.13;;
59062;SDS011;44851;45.648;9.004;2023-08-30T07:53:10;5.93;;;4.10;;
59062;SDS011;44851;45.648;9.004;2023-08-30T07:55:36;7.43;;;5.17;;
59062;SDS011;44851;45.648;9.004;2023-08-30T07:58:02;6.10;;;4.50;;
59062;SDS011;44851;45.648;9.004;2023-08-30T08:00:28;5.07;;;3.87;;
59062;SDS011;44851;45.648;9.004;2023-08-30T08:02:54;5.23;;;4.00;;
59062;SDS011;44851;45.648;9.004;2023-08-30T08:05:19;7.80;;;4.77;;
59062;SDS011;44851;45.648;9.004;2023-08-30T08:07:44;5.77;;;4.53;;
59062;SDS011;44851;45.648;9.004;2023-08-30T08:10:10;6.63;;;4.03;;
59062;SDS011;44851;45.648;9.004;2023-08-30T08:12:35;6.17;;;4.30;;
59062;SDS011;44851;45.648;9.004;2023-08-30T08:15:01;5.37;;;3.97;;
59062;SDS011;44851;45.648;9.004;2023-08-30T08:17:27;5.07;;;4.03;;
59062;SDS011;44851;45.648;9.004;2023-08-30T08:19:52;5.30;;;4.57;;
59062;SDS011;44851;45.648;9.004;2023-08-30T08:22:17;4.70;;;3.83;;
59062;SDS011;44851;45.648;9.004;2023-08-30T08:24:43;5.60;;;4.17;;
59062;SDS011;44851;45.648;9.004;2023-08-30T08:27:10;6.63;;;4.40;;
59062;SDS011;44851;45.648;9.004;2023-08-30T08:29:36;7.17;;;4.47;;
59062;SDS011;44851;45.648;9.004;2023-08-30T08:32:02;6.70;;;4.23;;
59062;SDS011;44851;45.648;9.004;2023-08-30T08:34:28;6.03;;;4.17;;
59062;SDS011;44851;45.648;9.004;2023-08-30T08:36:53;5.17;;;3.87;;
59062;SDS011;44851;45.648;9.004;2023-08-30T08:39:18;4.50;;;3.23;;
59062;SDS011;44851;45.648;9.004;2023-08-30T08:41:44;5.07;;;3.37;;
59062;SDS011;44851;45.648;9.004;2023-08-30T08:44:11;4.87;;;3.50;;
59062;SDS011;44851;45.648;9.004;2023-08-30T08:46:37;4.20;;;3.30;;
59062;SDS011;44851;45.648;9.004;2023-08-30T08:49:08;5.27;;;3.27;;
59062;SDS011;44851;45.648;9.004;2023-08-30T08:51:36;4.93;;;3.63;;
59062;SDS011;44851;45.648;9.004;2023-08-30T08:54:03;3.67;;;3.30;;
59062;SDS011;44851;45.648;9.004;2023-08-30T08:56:30;5.00;;;2.97;;
59062;SDS011;44851;45.648;9.004;2023-08-30T08:58:56;3.70;;;3.03;;
59062;SDS011;44851;45.648;9.004;2023-08-30T09:01:21;3.90;;;3.13;;
59062;SDS011;44851;45.648;9.004;2023-08-30T09:03:48;5.13;;;3.33;;
59062;SDS011;44851;45.648;9.004;2023-08-30T09:06:15;4.83;;;3.23;;
59062;SDS011;44851;45.648;9.004;2023-08-30T09:08:40;4.40;;;3.20;;
59062;SDS011;44851;45.648;9.004;2023-08-30T09:11:06;4.53;;;3.13;;
59062;SDS011;44851;45.648;9.004;2023-08-30T09:13:31;3.17;;;2.50;;
59062;SDS011;44851;45.648;9.004;2023-08-30T09:15:56;4.00;;;2.90;;
59062;SDS011;44851;45.648;9.004;2023-08-30T09:18:22;5.07;;;3.37;;
59062;SDS011;44851;45.648;9.004;2023-08-30T09:20:52;3.63;;;2.40;;
59062;SDS011;44851;45.648;9.004;2023-08-30T09:23:21;4.07;;;2.63;;
59062;SDS011;44851;45.648;9.004;2023-08-30T09:25:47;4.27;;;2.60;;
59062;SDS011;44851;45.648;9.004;2023-08-30T09:28:18;5.47;;;2.43;;
59062;SDS011;44851;45.648;9.004;2023-08-30T09:30:48;2.60;;;2.10;;
59062;SDS011;44851;45.648;9.004;2023-08-30T09:33:15;2.80;;;2.00;;
59062;SDS011;44851;45.648;9.004;2023-08-30T09:35:44;2.07;;;1.80;;
59062;SDS011;44851;45.648;9.004;2023-08-30T09:38:15;2.20;;;2.00;;
59062;SDS011;44851;45.648;9.004;2023-08-30T09:40:42;2.07;;;1.57;;
59062;SDS011;44851;45.648;9.004;2023-08-30T09:43:08;3.67;;;1.87;;
59062;SDS011;44851;45.648;9.004;2023-08-30T09:45:34;2.40;;;2.00;;
59062;SDS011;44851;45.648;9.004;2023-08-30T09:48:00;2.87;;;1.67;;
59062;SDS011;44851;45.648;9.004;2023-08-30T09:50:27;2.80;;;1.77;;
59062;SDS011;44851;45.648;9.004;2023-08-30T09:52:57;1.67;;;1.57;;
59062;SDS011;44851;45.648;9.004;2023-08-30T09:55:23;2.97;;;1.70;;
59062;SDS011;44851;45.648;9.004;2023-08-30T09:57:49;2.23;;;1.50;;
59062;SDS011;44851;45.648;9.004;2023-08-30T10:00:16;2.70;;;1.80;;
59062;SDS011;44851;45.648;9.004;2023-08-30T10:02:41;2.10;;;1.90;;
59062;SDS011;44851;45.648;9.004;2023-08-30T10:05:09;1.90;;;1.70;;
59062;SDS011;44851;45.648;9.004;2023-08-30T10:07:35;1.90;;;1.63;;
59062;SDS011;44851;45.648;9.004;2023-08-30T10:10:02;2.70;;;1.87;;
59062;SDS011;44851;45.648;9.004;2023-08-30T10:12:29;2.13;;;1.93;;
59062;SDS011;44851;45.648;9.004;2023-08-30T10:14:57;1.97;;;1.63;;
59062;SDS011;44851;45.648;9.004;2023-08-30T10:17:22;1.60;;;1.30;;
59062;SDS011;44851;45.648;9.004;2023-08-30T10:19:52;1.57;;;1.40;;
59062;SDS011;44851;45.648;9.004;2023-08-30T10:22:18;2.10;;;1.60;;
59062;SDS011;44851;45.648;9.004;2023-08-30T10:24:46;3.20;;;1.67;;
59062;SDS011;44851;45.648;9.004;2023-08-30T10:27:16;2.27;;;1.60;;
59062;SDS011;44851;45.648;9.004;2023-08-30T10:29:42;3.67;;;1.67;;
59062;SDS011;44851;45.648;9.004;2023-08-30T10:32:09;2.90;;;1.80;;
59062;SDS011;44851;45.648;9.004;2023-08-30T10:34:36;1.83;;;1.70;;
59062;SDS011;44851;45.648;9.004;2023-08-30T10:37:06;3.63;;;2.00;;
59062;SDS011;44851;45.648;9.004;2023-08-30T10:39:33;1.73;;;1.40;;
59062;SDS011;44851;45.648;9.004;2023-08-30T10:42:00;5.70;;;2.40;;
59062;SDS011;44851;45.648;9.004;2023-08-30T10:44:26;2.40;;;2.10;;
59062;SDS011;44851;45.648;9.004;2023-08-30T10:46:54;3.13;;;2.03;;
59062;SDS011;44851;45.648;9.004;2023-08-30T10:49:20;2.30;;;2.03;;
59062;SDS011;44851;45.648;9.004;2023-08-30T10:51:54;2.80;;;1.83;;
59062;SDS011;44851;45.648;9.004;2023-08-30T10:54:21;1.83;;;1.60;;
59062;SDS011;44851;45.648;9.004;2023-08-30T10:56:58;2.60;;;1.50;;
59062;SDS011;44851;45.648;9.004;2023-08-30T10:59:25;2.40;;;2.10;;
59062;SDS011;44851;45.648;9.004;2023-08-30T11:01:52;2.87;;;2.30;;
59062;SDS011;44851;45.648;9.004;2023-08-30T11:04:18;2.33;;;1.70;;
59062;SDS011;44851;45.648;9.004;2023-08-30T11:06:45;4.53;;;2.10;;
59062;SDS011;44851;45.648;9.004;2023-08-30T11:09:15;2.10;;;1.90;;
59062;SDS011;44851;45.648;9.004;2023-08-30T11:11:45;3.27;;;1.90;;
59062;SDS011;44851;45.648;9.004;2023-08-30T11:14:11;2.43;;;1.90;;
59062;SDS011;44851;45.648;9.004;2023-08-30T11:16:37;2.07;;;1.87;;
59062;SDS011;44851;45.648;9.004;2023-08-30T11:19:04;2.70;;;1.50;;
59062;SDS011;44851;45.648;9.004;2023-08-30T11:21:32;2.40;;;1.87;;
59062;SDS011;44851;45.648;9.004;2023-08-30T11:23:58;3.27;;;1.77;;
59062;SDS011;44851;45.648;9.004;2023-08-30T11:26:24;2.43;;;2.00;;
59062;SDS011;44851;45.648;9.004;2023-08-30T11:28:50;1.73;;;1.60;;
59062;SDS011;44851;45.648;9.004;2023-08-30T11:31:26;2.07;;;1.70;;
59062;SDS011;44851;45.648;9.004;2023-08-30T11:33:57;2.37;;;1.70;;
59062;SDS011;44851;45.648;9.004;2023-08-30T11:36:23;1.90;;;1.70;;
59062;SDS011;44851;45.648;9.004;2023-08-30T11:38:53;2.33;;;1.60;;
59062;SDS011;44851;45.648;9.004;2023-08-30T11:41:22;1.30;;;1.20;;
59062;SDS011;44851;45.648;9.004;2023-08-30T11:43:49;2.13;;;1.40;;
59062;SDS011;44851;45.648;9.004;2023-08-30T11:46:15;1.50;;;1.17;;
59062;SDS011;44851;45.648;9.004;2023-08-30T11:48:41;1.33;;;1.23;;
59062;SDS011;44851;45.648;9.004;2023-08-30T11:51:07;2.33;;;1.40;;
59062;SDS011;44851;45.648;9.004;2023-08-30T11:53:36;6.70;;;1.80;;
59062;SDS011;44851;45.648;9.004;2023-08-30T11:56:02;1.30;;;1.20;;
59062;SDS011;44851;45.648;9.004;2023-08-30T11:58:31;4.20;;;1.30;;
59062;SDS011;44851;45.648;9.004;2023-08-30T12:00:58;1.90;;;1.37;;
59062;SDS011;44851;45.648;9.004;2023-08-30T12:03:25;1.33;;;1.00;;
59062;SDS011;44851;45.648;9.004;2023-08-30T12:05:51;4.03;;;1.40;;
59062;SDS011;44851;45.648;9.004;2023-08-30T12:08:17;5.83;;;1.73;;
59062;SDS011;44851;45.648;9.004;2023-08-30T12:10:53;1.80;;;1.27;;
59062;SDS011;44851;45.648;9.004;2023-08-30T12:13:22;2.03;;;1.30;;
59062;SDS011;44851;45.648;9.004;2023-08-30T12:15:52;2.17;;;1.50;;
59062;SDS011;44851;45.648;9.004;2023-08-30T12:18:28;2.37;;;1.50;;
59062;SDS011;44851;45.648;9.004;2023-08-30T12:20:59;2.53;;;1.53;;
59062;SDS011;44851;45.648;9.004;2023-08-30T12:23:28;1.73;;;1.53;;
59062;SDS011;44851;45.648;9.004;2023-08-30T12:26:03;2.40;;;1.63;;
59062;SDS011;44851;45.648;9.004;2023-08-30T12:28:31;2.47;;;1.40;;
59062;SDS011;44851;45.648;9.004;2023-08-30T12:30:58;2.50;;;1.43;;
59062;SDS011;44851;45.648;9.004;2023-08-30T12:33:24;2.27;;;1.57;;
59062;SDS011;44851;45.648;9.004;2023-08-30T12:35:55;2.33;;;1.50;;
59062;SDS011;44851;45.648;9.004;2023-08-30T12:38:22;1.50;;;1.30;;
59062;SDS011;44851;45.648;9.004;2023-08-30T12:40:49;1.77;;;1.40;;
59062;SDS011;44851;45.648;9.004;2023-08-30T12:43:16;1.67;;;1.40;;
59062;SDS011;44851;45.648;9.004;2023-08-30T12:45:42;2.97;;;1.33;;
59062;SDS011;44851;45.648;9.004;2023-08-30T12:48:09;2.13;;;1.30;;
59062;SDS011;44851;45.648;9.004;2023-08-30T12:50:36;3.30;;;1.50;;
59062;SDS011;44851;45.648;9.004;2023-08-30T12:53:03;7.27;;;1.93;;
59062;SDS011;44851;45.648;9.004;2023-08-30T12:55:29;3.07;;;1.50;;
59062;SDS011;44851;45.648;9.004;2023-08-30T12:57:54;4.83;;;1.60;;
59062;SDS011;44851;45.648;9.004;2023-08-30T13:00:20;3.50;;;1.50;;
59062;SDS011;44851;45.648;9.004;2023-08-30T13:02:45;1.83;;;1.33;;
59062;SDS011;44851;45.648;9.004;2023-08-30T13:05:10;1.40;;;1.30;;
59062;SDS011;44851;45.648;9.004;2023-08-30T13:07:36;1.87;;;1.20;;
59062;SDS011;44851;45.648;9.004;2023-08-30T13:10:01;2.83;;;1.60;;
59062;SDS011;44851;45.648;9.004;2023-08-30T13:12:27;1.30;;;1.20;;
59062;SDS011;44851;45.648;9.004;2023-08-30T13:14:53;1.23;;;1.13;;
59062;SDS011;44851;45.648;9.004;2023-08-30T13:17:18;1.73;;;1.33;;
59062;SDS011;44851;45.648;9.004;2023-08-30T13:19:43;1.90;;;1.30;;
59062;SDS011;44851;45.648;9.004;2023-08-30T13:22:09;1.60;;;1.20;;
59062;SDS011;44851;45.648;9.004;2023-08-30T13:24:35;2.80;;;1.40;;
59062;SDS011;44851;45.648;9.004;2023-08-30T13:27:01;2.30;;;1.00;;
59062;SDS011;44851;45.648;9.004;2023-08-30T13:29:27;1.63;;;1.30;;
59062;SDS011;44851;45.648;9.004;2023-08-30T13:31:52;3.17;;;1.50;;
59062;SDS011;44851;45.648;9.004;2023-08-30T13:34:17;1.87;;;1.47;;
59062;SDS011;44851;45.648;9.004;2023-08-30T13:36:43;1.67;;;1.30;;
59062;SDS011;44851;45.648;9.004;2023-08-30T13:39:08;1.40;;;1.20;;
59062;SDS011;44851;45.648;9.004;2023-08-30T13:41:33;2.10;;;1.30;;
59062;SDS011;44851;45.648;9.004;2023-08-30T13:44:00;2.67;;;1.33;;
59062;SDS011;44851;45.648;9.004;2023-08-30T13:46:26;1.70;;;1.30;;
59062;SDS011;44851;45.648;9.004;2023-08-30T13:48:51;1.83;;;1.30;;
59062;SDS011;44851;45.648;9.004;2023-08-30T13:51:26;2.00;;;1.23;;
59062;SDS011;44851;45.648;9.004;2023-08-30T13:53:52;1.53;;;1.30;;
59062;SDS011;44851;45.648;9.004;2023-08-30T13:56:18;2.00;;;1.40;;
59062;SDS011;44851;45.648;9.004;2023-08-30T13:58:44;1.70;;;1.43;;
59062;SDS011;44851;45.648;9.004;2023-08-30T14:01:10;2.23;;;1.20;;
59062;SDS011;44851;45.648;9.004;2023-08-30T14:03:35;2.40;;;1.30;;
59062;SDS011;44851;45.648;9.004;2023-08-30T14:06:01;3.17;;;1.80;;
59062;SDS011;44851;45.648;9.004;2023-08-30T14:08:26;2.93;;;1.50;;
59062;SDS011;44851;45.648;9.004;2023-08-30T14:10:51;3.20;;;1.57;;
59062;SDS011;44851;45.648;9.004;2023-08-30T14:13:17;1.87;;;1.50;;
59062;SDS011;44851;45.648;9.004;2023-08-30T14:15:42;2.50;;;1.53;;
59062;SDS011;44851;45.648;9.004;2023-08-30T14:18:07;1.90;;;1.20;;
59062;SDS011;44851;45.648;9.004;2023-08-30T14:20:33;2.50;;;1.70;;
59062;SDS011;44851;45.648;9.004;2023-08-30T14:22:58;1.33;;;1.20;;
59062;SDS011;44851;45.648;9.004;2023-08-30T14:25:24;1.90;;;1.30;;
59062;SDS011;44851;45.648;9.004;2023-08-30T14:27:49;2.47;;;1.23;;
59062;SDS011;44851;45.648;9.004;2023-08-30T14:30:14;1.57;;;1.20;;
59062;SDS011;44851;45.648;9.004;2023-08-30T14:32:40;2.47;;;1.30;;
59062;SDS011;44851;45.648;9.004;2023-08-30T14:35:06;2.43;;;1.60;;
59062;SDS011;44851;45.648;9.004;2023-08-30T14:37:32;1.73;;;1.30;;
59062;SDS011;44851;45.648;9.004;2023-08-30T14:39:59;1.97;;;1.27;;
59062;SDS011;44851;45.648;9.004;2023-08-30T14:42:25;1.30;;;1.20;;
59062;SDS011;44851;45.648;9.004;2023-08-30T14:44:50;2.13;;;1.23;;
59062;SDS011;44851;45.648;9.004;2023-08-30T14:47:16;2.40;;;1.40;;
59062;SDS011;44851;45.648;9.004;2023-08-30T14:49:43;1.90;;;1.40;;